Chicago O'Hare International Airport
KORD : rendu visible

Aérodrome :











RETROUVEZ-NOUS SUR...

 
LOGIN :

S'inscrire | Disclaimer

   EN    FR    IT 

 









Légende :    VFR   VFR Marginal   IFR   IFR Intensif   IFR Très Intensif
Visi : 
Plafond : 
>= 8 km
>= 3000ft
5 à 8 km
1000 à 3000 ft
1500m à 5 km
500 à 1000 ft
800 à 1500m
200 à 500 ft
< 800m
< 200 ft
Symboles :   Orages  Brouillard  Fortes neiges  Fortes précipitations  Vent > 20 kt






- Altitude de l'aérodrome : 672 ft
- Code IATA : ORD


KORD - Chicago O'Hare International

DERNIER METAR :
  • 021151Z 25012G16KT 10SM FEW100 SCT250 21/15 A2991 RMK AO2 SLP124 T02060144 10211 20194 56004 $

METARs EXPIRÉS :
  • 021051Z 24012KT 10SM FEW100 SCT250 20/14 A2991 RMK AO2 SLP126 T02000139 $
  • 020951Z 23011KT 10SM FEW040 BKN250 19/13 A2991 RMK AO2 SLP126 T01940128 $

TAF KORD
Valide du 02 à 12h jusqu'au 03 à 18h UTC


021120Z 0212/0318 23012KT P6SM SCT250 WS015/24045KT
FM021400 24015G25KT P6SM SCT250
FM030000 24012G20KT P6SM SCT250
FM030700 30012KT 6SM -SHRA BKN040
TEMPO 0307/0311 4SM TSRA BKN040CB
FM031400 30010KT P6SM BKN080
FIR KZAU / Amérique du Nord



MET'MAP, la Météo Aéronautique d'un coup d'oeil ! - Copyright ORBIFLY Décembre 2007 - Disclaimer

ORBIFLY MET'MAP TEAM :

Programmation & Développement : Alexandra Zaïnal
Sur une idée originale de : Baudouin d'Aumeries
Assistance à la programmation : Marc-Olivier Méhu
Soutien technique & logistique : Manuel Goepfert

Contact : metmap@orbifly.com




SOURCES & CREDITS :

   NOAA       Earth
Advisory